sensor_id;sensor_type;location;lat;lon;timestamp;P1;durP1;ratioP1;P2;durP2;ratioP2
75526;SDS011;64107;49.248;7.006;2023-06-10T00:01:51;9.30;;;7.10;;
75526;SDS011;64107;49.248;7.006;2023-06-10T00:04:20;12.18;;;6.97;;
75526;SDS011;64107;49.248;7.006;2023-06-10T00:06:46;9.30;;;8.32;;
75526;SDS011;64107;49.248;7.006;2023-06-10T00:09:14;6.47;;;5.80;;
75526;SDS011;64107;49.248;7.006;2023-06-10T00:11:40;8.70;;;7.50;;
75526;SDS011;64107;49.248;7.006;2023-06-10T00:14:07;8.38;;;6.82;;
75526;SDS011;64107;49.248;7.006;2023-06-10T00:16:33;9.65;;;6.25;;
75526;SDS011;64107;49.248;7.006;2023-06-10T00:19:01;6.53;;;5.93;;
75526;SDS011;64107;49.248;7.006;2023-06-10T00:21:28;6.78;;;5.50;;
75526;SDS011;64107;49.248;7.006;2023-06-10T00:24:05;7.30;;;6.07;;
75526;SDS011;64107;49.248;7.006;2023-06-10T00:26:34;6.45;;;5.85;;
75526;SDS011;64107;49.248;7.006;2023-06-10T00:29:00;9.60;;;5.78;;
75526;SDS011;64107;49.248;7.006;2023-06-10T00:31:26;7.03;;;6.43;;
75526;SDS011;64107;49.248;7.006;2023-06-10T00:33:53;8.38;;;7.50;;
75526;SDS011;64107;49.248;7.006;2023-06-10T00:36:19;7.60;;;6.90;;
75526;SDS011;64107;49.248;7.006;2023-06-10T00:38:45;8.95;;;6.32;;
75526;SDS011;64107;49.248;7.006;2023-06-10T00:41:11;9.73;;;7.05;;
75526;SDS011;64107;49.248;7.006;2023-06-10T00:43:37;7.90;;;7.00;;
75526;SDS011;64107;49.248;7.006;2023-06-10T00:46:03;7.45;;;6.63;;
75526;SDS011;64107;49.248;7.006;2023-06-10T00:48:30;8.40;;;7.45;;
75526;SDS011;64107;49.248;7.006;2023-06-10T00:50:57;9.55;;;7.45;;
75526;SDS011;64107;49.248;7.006;2023-06-10T00:53:23;8.27;;;7.43;;
75526;SDS011;64107;49.248;7.006;2023-06-10T00:55:50;8.93;;;6.95;;
75526;SDS011;64107;49.248;7.006;2023-06-10T00:58:16;6.93;;;5.78;;
75526;SDS011;64107;49.248;7.006;2023-06-10T01:00:42;8.35;;;7.53;;
75526;SDS011;64107;49.248;7.006;2023-06-10T01:03:10;8.20;;;6.80;;
75526;SDS011;64107;49.248;7.006;2023-06-10T01:05:37;7.88;;;7.15;;
75526;SDS011;64107;49.248;7.006;2023-06-10T01:10:50;8.63;;;6.18;;
75526;SDS011;64107;49.248;7.006;2023-06-10T01:13:20;8.35;;;6.28;;
75526;SDS011;64107;49.248;7.006;2023-06-10T01:15:49;7.43;;;6.60;;
75526;SDS011;64107;49.248;7.006;2023-06-10T01:18:15;8.55;;;7.25;;
75526;SDS011;64107;49.248;7.006;2023-06-10T01:20:42;7.00;;;6.13;;
75526;SDS011;64107;49.248;7.006;2023-06-10T01:23:09;9.60;;;7.45;;
75526;SDS011;64107;49.248;7.006;2023-06-10T01:25:56;8.18;;;7.32;;
75526;SDS011;64107;49.248;7.006;2023-06-10T01:28:27;8.95;;;6.50;;
75526;SDS011;64107;49.248;7.006;2023-06-10T01:31:11;10.10;;;6.32;;
75526;SDS011;64107;49.248;7.006;2023-06-10T01:33:59;8.05;;;7.03;;
75526;SDS011;64107;49.248;7.006;2023-06-10T01:36:31;8.60;;;6.47;;
75526;SDS011;64107;49.248;7.006;2023-06-10T01:39:01;6.15;;;5.53;;
75526;SDS011;64107;49.248;7.006;2023-06-10T01:41:29;10.20;;;6.72;;
75526;SDS011;64107;49.248;7.006;2023-06-10T01:43:55;7.88;;;5.95;;
75526;SDS011;64107;49.248;7.006;2023-06-10T01:46:21;7.55;;;6.53;;
75526;SDS011;64107;49.248;7.006;2023-06-10T01:48:47;7.75;;;6.32;;
75526;SDS011;64107;49.248;7.006;2023-06-10T01:51:14;9.90;;;6.90;;
75526;SDS011;64107;49.248;7.006;2023-06-10T01:53:40;8.40;;;7.47;;
75526;SDS011;64107;49.248;7.006;2023-06-10T01:56:06;8.25;;;6.68;;
75526;SDS011;64107;49.248;7.006;2023-06-10T01:58:32;10.55;;;7.78;;
75526;SDS011;64107;49.248;7.006;2023-06-10T02:00:58;10.00;;;7.63;;
75526;SDS011;64107;49.248;7.006;2023-06-10T02:03:24;8.85;;;7.72;;
75526;SDS011;64107;49.248;7.006;2023-06-10T02:05:50;9.02;;;7.90;;
75526;SDS011;64107;49.248;7.006;2023-06-10T02:08:16;8.93;;;8.05;;
75526;SDS011;64107;49.248;7.006;2023-06-10T02:10:42;8.80;;;7.15;;
75526;SDS011;64107;49.248;7.006;2023-06-10T02:13:09;8.82;;;7.57;;
75526;SDS011;64107;49.248;7.006;2023-06-10T02:15:38;9.77;;;8.05;;
75526;SDS011;64107;49.248;7.006;2023-06-10T02:18:04;9.40;;;7.38;;
75526;SDS011;64107;49.248;7.006;2023-06-10T02:20:30;8.82;;;7.88;;
75526;SDS011;64107;49.248;7.006;2023-06-10T02:22:56;7.35;;;6.25;;
75526;SDS011;64107;49.248;7.006;2023-06-10T02:25:23;10.07;;;7.20;;
75526;SDS011;64107;49.248;7.006;2023-06-10T02:27:49;7.75;;;6.95;;
75526;SDS011;64107;49.248;7.006;2023-06-10T02:30:15;9.45;;;7.63;;
75526;SDS011;64107;49.248;7.006;2023-06-10T02:32:45;7.05;;;6.35;;
75526;SDS011;64107;49.248;7.006;2023-06-10T02:35:13;7.75;;;6.72;;
75526;SDS011;64107;49.248;7.006;2023-06-10T02:37:39;12.50;;;6.63;;
75526;SDS011;64107;49.248;7.006;2023-06-10T02:40:06;7.57;;;6.53;;
75526;SDS011;64107;49.248;7.006;2023-06-10T02:42:33;8.90;;;7.93;;
75526;SDS011;64107;49.248;7.006;2023-06-10T02:44:59;7.97;;;6.95;;
75526;SDS011;64107;49.248;7.006;2023-06-10T02:47:29;7.80;;;6.72;;
75526;SDS011;64107;49.248;7.006;2023-06-10T02:49:55;8.40;;;6.80;;
75526;SDS011;64107;49.248;7.006;2023-06-10T02:52:21;8.75;;;7.18;;
75526;SDS011;64107;49.248;7.006;2023-06-10T02:54:47;7.80;;;6.97;;
75526;SDS011;64107;49.248;7.006;2023-06-10T02:57:14;7.95;;;6.95;;
75526;SDS011;64107;49.248;7.006;2023-06-10T02:59:40;9.65;;;7.20;;
75526;SDS011;64107;49.248;7.006;2023-06-10T03:02:06;8.00;;;6.55;;
75526;SDS011;64107;49.248;7.006;2023-06-10T03:04:32;7.25;;;6.55;;
75526;SDS011;64107;49.248;7.006;2023-06-10T03:06:58;9.35;;;7.72;;
75526;SDS011;64107;49.248;7.006;2023-06-10T03:09:28;10.50;;;6.72;;
75526;SDS011;64107;49.248;7.006;2023-06-10T03:11:54;8.95;;;7.35;;
75526;SDS011;64107;49.248;7.006;2023-06-10T03:14:20;8.10;;;6.90;;
75526;SDS011;64107;49.248;7.006;2023-06-10T03:16:46;8.85;;;7.05;;
75526;SDS011;64107;49.248;7.006;2023-06-10T03:19:13;8.27;;;7.00;;
75526;SDS011;64107;49.248;7.006;2023-06-10T03:21:43;9.93;;;7.47;;
75526;SDS011;64107;49.248;7.006;2023-06-10T03:24:09;8.27;;;7.40;;
75526;SDS011;64107;49.248;7.006;2023-06-10T03:26:36;7.90;;;7.10;;
75526;SDS011;64107;49.248;7.006;2023-06-10T03:29:02;7.63;;;6.55;;
75526;SDS011;64107;49.248;7.006;2023-06-10T03:31:28;7.70;;;6.95;;
75526;SDS011;64107;49.248;7.006;2023-06-10T03:33:55;9.60;;;7.07;;
75526;SDS011;64107;49.248;7.006;2023-06-10T03:36:23;8.93;;;6.80;;
75526;SDS011;64107;49.248;7.006;2023-06-10T03:38:49;10.35;;;7.35;;
75526;SDS011;64107;49.248;7.006;2023-06-10T03:41:17;8.63;;;7.03;;
75526;SDS011;64107;49.248;7.006;2023-06-10T03:43:43;8.85;;;7.20;;
75526;SDS011;64107;49.248;7.006;2023-06-10T03:46:09;8.95;;;7.70;;
75526;SDS011;64107;49.248;7.006;2023-06-10T03:48:35;7.40;;;6.22;;
75526;SDS011;64107;49.248;7.006;2023-06-10T03:51:02;7.75;;;6.90;;
75526;SDS011;64107;49.248;7.006;2023-06-10T03:53:28;11.00;;;7.80;;
75526;SDS011;64107;49.248;7.006;2023-06-10T03:55:54;10.32;;;7.47;;
75526;SDS011;64107;49.248;7.006;2023-06-10T03:58:22;9.50;;;7.60;;
75526;SDS011;64107;49.248;7.006;2023-06-10T04:00:48;8.95;;;7.53;;
75526;SDS011;64107;49.248;7.006;2023-06-10T04:03:14;8.43;;;7.53;;
75526;SDS011;64107;49.248;7.006;2023-06-10T04:05:40;8.93;;;7.70;;
75526;SDS011;64107;49.248;7.006;2023-06-10T04:08:07;10.80;;;7.93;;
75526;SDS011;64107;49.248;7.006;2023-06-10T04:10:33;10.07;;;7.68;;
75526;SDS011;64107;49.248;7.006;2023-06-10T04:12:59;8.95;;;7.75;;
75526;SDS011;64107;49.248;7.006;2023-06-10T04:15:25;9.25;;;8.07;;
75526;SDS011;64107;49.248;7.006;2023-06-10T04:17:51;8.82;;;7.03;;
75526;SDS011;64107;49.248;7.006;2023-06-10T04:20:17;7.80;;;6.65;;
75526;SDS011;64107;49.248;7.006;2023-06-10T04:22:43;8.40;;;7.45;;
75526;SDS011;64107;49.248;7.006;2023-06-10T04:25:10;9.38;;;7.40;;
75526;SDS011;64107;49.248;7.006;2023-06-10T04:27:36;9.07;;;7.35;;
75526;SDS011;64107;49.248;7.006;2023-06-10T04:30:05;7.40;;;6.70;;
75526;SDS011;64107;49.248;7.006;2023-06-10T04:32:31;9.20;;;8.23;;
75526;SDS011;64107;49.248;7.006;2023-06-10T04:34:59;8.35;;;7.35;;
75526;SDS011;64107;49.248;7.006;2023-06-10T04:37:25;10.80;;;7.70;;
75526;SDS011;64107;49.248;7.006;2023-06-10T04:39:51;8.90;;;7.45;;
75526;SDS011;64107;49.248;7.006;2023-06-10T04:42:17;7.38;;;6.63;;
75526;SDS011;64107;49.248;7.006;2023-06-10T04:44:43;9.10;;;7.05;;
75526;SDS011;64107;49.248;7.006;2023-06-10T04:47:09;9.45;;;6.70;;
75526;SDS011;64107;49.248;7.006;2023-06-10T04:49:35;8.50;;;7.25;;
75526;SDS011;64107;49.248;7.006;2023-06-10T04:52:01;8.48;;;7.57;;
75526;SDS011;64107;49.248;7.006;2023-06-10T04:54:29;7.97;;;7.18;;
75526;SDS011;64107;49.248;7.006;2023-06-10T04:56:56;8.95;;;7.47;;
75526;SDS011;64107;49.248;7.006;2023-06-10T04:59:22;8.32;;;7.43;;
75526;SDS011;64107;49.248;7.006;2023-06-10T05:01:48;8.80;;;7.32;;
75526;SDS011;64107;49.248;7.006;2023-06-10T05:04:14;8.45;;;7.03;;
75526;SDS011;64107;49.248;7.006;2023-06-10T05:06:40;8.65;;;7.75;;
75526;SDS011;64107;49.248;7.006;2023-06-10T05:09:06;8.48;;;7.57;;
75526;SDS011;64107;49.248;7.006;2023-06-10T05:11:34;8.00;;;7.13;;
75526;SDS011;64107;49.248;7.006;2023-06-10T05:14:00;8.60;;;7.68;;
75526;SDS011;64107;49.248;7.006;2023-06-10T05:16:26;9.02;;;7.28;;
75526;SDS011;64107;49.248;7.006;2023-06-10T05:18:52;8.80;;;7.75;;
75526;SDS011;64107;49.248;7.006;2023-06-10T05:21:18;9.13;;;6.50;;
75526;SDS011;64107;49.248;7.006;2023-06-10T05:23:45;8.75;;;7.82;;
75526;SDS011;64107;49.248;7.006;2023-06-10T05:26:11;7.32;;;6.28;;
75526;SDS011;64107;49.248;7.006;2023-06-10T05:28:37;7.90;;;7.05;;
75526;SDS011;64107;49.248;7.006;2023-06-10T05:31:03;8.02;;;7.22;;
75526;SDS011;64107;49.248;7.006;2023-06-10T05:33:30;8.50;;;7.30;;
75526;SDS011;64107;49.248;7.006;2023-06-10T05:35:56;8.45;;;7.32;;
75526;SDS011;64107;49.248;7.006;2023-06-10T05:38:22;7.68;;;6.13;;
75526;SDS011;64107;49.248;7.006;2023-06-10T05:40:48;9.32;;;6.55;;
75526;SDS011;64107;49.248;7.006;2023-06-10T05:43:14;7.47;;;5.90;;
75526;SDS011;64107;49.248;7.006;2023-06-10T05:45:41;6.80;;;6.13;;
75526;SDS011;64107;49.248;7.006;2023-06-10T05:48:07;7.43;;;6.45;;
75526;SDS011;64107;49.248;7.006;2023-06-10T05:50:34;7.45;;;6.15;;
75526;SDS011;64107;49.248;7.006;2023-06-10T05:53:03;7.78;;;6.95;;
75526;SDS011;64107;49.248;7.006;2023-06-10T05:55:31;7.18;;;6.47;;
75526;SDS011;64107;49.248;7.006;2023-06-10T05:57:58;7.65;;;6.88;;
75526;SDS011;64107;49.248;7.006;2023-06-10T06:00:25;6.90;;;6.22;;
75526;SDS011;64107;49.248;7.006;2023-06-10T06:02:51;7.43;;;6.45;;
75526;SDS011;64107;49.248;7.006;2023-06-10T06:05:19;8.20;;;7.20;;
75526;SDS011;64107;49.248;7.006;2023-06-10T06:07:45;7.13;;;5.90;;
75526;SDS011;64107;49.248;7.006;2023-06-10T06:10:11;7.70;;;6.85;;
75526;SDS011;64107;49.248;7.006;2023-06-10T06:12:37;7.53;;;6.60;;
75526;SDS011;64107;49.248;7.006;2023-06-10T06:15:03;9.98;;;6.68;;
75526;SDS011;64107;49.248;7.006;2023-06-10T06:17:29;9.90;;;6.60;;
75526;SDS011;64107;49.248;7.006;2023-06-10T06:19:55;7.30;;;6.57;;
75526;SDS011;64107;49.248;7.006;2023-06-10T06:22:22;7.50;;;6.80;;
75526;SDS011;64107;49.248;7.006;2023-06-10T06:24:48;9.50;;;6.22;;
75526;SDS011;64107;49.248;7.006;2023-06-10T06:27:14;7.78;;;6.55;;
75526;SDS011;64107;49.248;7.006;2023-06-10T06:29:40;7.45;;;6.05;;
75526;SDS011;64107;49.248;7.006;2023-06-10T06:32:06;8.50;;;6.32;;
75526;SDS011;64107;49.248;7.006;2023-06-10T06:34:33;7.25;;;6.45;;
75526;SDS011;64107;49.248;7.006;2023-06-10T06:36:59;7.03;;;6.32;;
75526;SDS011;64107;49.248;7.006;2023-06-10T06:39:25;7.10;;;6.10;;
75526;SDS011;64107;49.248;7.006;2023-06-10T06:41:51;6.40;;;5.80;;
75526;SDS011;64107;49.248;7.006;2023-06-10T06:44:18;6.25;;;5.65;;
75526;SDS011;64107;49.248;7.006;2023-06-10T06:46:44;6.60;;;5.97;;
75526;SDS011;64107;49.248;7.006;2023-06-10T06:49:10;7.75;;;5.72;;
75526;SDS011;64107;49.248;7.006;2023-06-10T06:51:36;6.32;;;5.70;;
75526;SDS011;64107;49.248;7.006;2023-06-10T06:54:02;9.88;;;5.30;;
75526;SDS011;64107;49.248;7.006;2023-06-10T06:56:30;6.38;;;5.18;;
75526;SDS011;64107;49.248;7.006;2023-06-10T06:58:56;7.00;;;6.40;;
75526;SDS011;64107;49.248;7.006;2023-06-10T07:01:22;6.40;;;5.78;;
75526;SDS011;64107;49.248;7.006;2023-06-10T07:03:48;6.43;;;5.20;;
75526;SDS011;64107;49.248;7.006;2023-06-10T07:06:14;8.98;;;5.03;;
75526;SDS011;64107;49.248;7.006;2023-06-10T07:08:40;8.00;;;4.97;;
75526;SDS011;64107;49.248;7.006;2023-06-10T07:11:06;7.80;;;5.60;;
75526;SDS011;64107;49.248;7.006;2023-06-10T07:13:33;5.82;;;5.32;;
75526;SDS011;64107;49.248;7.006;2023-06-10T07:15:59;5.43;;;4.72;;
75526;SDS011;64107;49.248;7.006;2023-06-10T07:18:25;6.00;;;4.40;;
75526;SDS011;64107;49.248;7.006;2023-06-10T07:20:51;4.88;;;4.38;;
75526;SDS011;64107;49.248;7.006;2023-06-10T07:23:17;5.57;;;5.07;;
75526;SDS011;64107;49.248;7.006;2023-06-10T07:25:43;5.53;;;4.90;;
75526;SDS011;64107;49.248;7.006;2023-06-10T07:28:09;6.45;;;4.55;;
75526;SDS011;64107;49.248;7.006;2023-06-10T07:30:35;6.25;;;5.65;;
75526;SDS011;64107;49.248;7.006;2023-06-10T07:33:01;5.40;;;4.28;;
75526;SDS011;64107;49.248;7.006;2023-06-10T07:35:27;4.70;;;4.30;;
75526;SDS011;64107;49.248;7.006;2023-06-10T07:37:53;6.43;;;4.55;;
75526;SDS011;64107;49.248;7.006;2023-06-10T07:40:19;4.32;;;3.92;;
75526;SDS011;64107;49.248;7.006;2023-06-10T07:42:46;5.38;;;4.88;;
75526;SDS011;64107;49.248;7.006;2023-06-10T07:45:14;5.57;;;5.07;;
75526;SDS011;64107;49.248;7.006;2023-06-10T07:47:40;6.63;;;5.30;;
75526;SDS011;64107;49.248;7.006;2023-06-10T07:50:07;6.07;;;5.38;;
75526;SDS011;64107;49.248;7.006;2023-06-10T07:52:34;5.15;;;4.60;;
75526;SDS011;64107;49.248;7.006;2023-06-10T07:55:00;6.28;;;5.03;;
75526;SDS011;64107;49.248;7.006;2023-06-10T07:57:26;5.35;;;4.68;;
75526;SDS011;64107;49.248;7.006;2023-06-10T07:59:52;6.05;;;5.40;;
75526;SDS011;64107;49.248;7.006;2023-06-10T08:02:19;6.90;;;6.28;;
75526;SDS011;64107;49.248;7.006;2023-06-10T08:04:45;5.25;;;4.75;;
75526;SDS011;64107;49.248;7.006;2023-06-10T08:07:12;5.10;;;4.50;;
75526;SDS011;64107;49.248;7.006;2023-06-10T08:09:38;5.68;;;4.93;;
75526;SDS011;64107;49.248;7.006;2023-06-10T08:12:05;7.43;;;5.00;;
75526;SDS011;64107;49.248;7.006;2023-06-10T08:14:31;5.22;;;4.72;;
75526;SDS011;64107;49.248;7.006;2023-06-10T08:16:57;4.63;;;4.22;;
75526;SDS011;64107;49.248;7.006;2023-06-10T08:19:24;7.35;;;4.68;;
75526;SDS011;64107;49.248;7.006;2023-06-10T08:21:50;5.82;;;4.45;;
75526;SDS011;64107;49.248;7.006;2023-06-10T08:24:16;4.57;;;4.18;;
75526;SDS011;64107;49.248;7.006;2023-06-10T08:26:43;5.47;;;4.63;;
75526;SDS011;64107;49.248;7.006;2023-06-10T08:29:11;5.55;;;4.72;;
75526;SDS011;64107;49.248;7.006;2023-06-10T08:31:37;7.20;;;4.65;;
75526;SDS011;64107;49.248;7.006;2023-06-10T08:34:07;5.55;;;4.40;;
75526;SDS011;64107;49.248;7.006;2023-06-10T08:36:33;5.22;;;4.72;;
75526;SDS011;64107;49.248;7.006;2023-06-10T08:39:00;7.03;;;5.30;;
75526;SDS011;64107;49.248;7.006;2023-06-10T08:41:28;5.53;;;4.75;;
75526;SDS011;64107;49.248;7.006;2023-06-10T08:43:59;5.97;;;5.43;;
75526;SDS011;64107;49.248;7.006;2023-06-10T08:46:35;5.35;;;4.85;;
75526;SDS011;64107;49.248;7.006;2023-06-10T08:49:02;5.32;;;4.82;;
75526;SDS011;64107;49.248;7.006;2023-06-10T08:51:31;6.78;;;5.68;;
75526;SDS011;64107;49.248;7.006;2023-06-10T08:54:01;5.47;;;4.95;;
75526;SDS011;64107;49.248;7.006;2023-06-10T08:56:33;5.45;;;4.95;;
75526;SDS011;64107;49.248;7.006;2023-06-10T08:59:01;5.60;;;5.07;;
75526;SDS011;64107;49.248;7.006;2023-06-10T09:01:27;6.38;;;4.43;;
75526;SDS011;64107;49.248;7.006;2023-06-10T09:03:53;6.80;;;4.70;;
75526;SDS011;64107;49.248;7.006;2023-06-10T09:06:20;5.18;;;4.53;;
75526;SDS011;64107;49.248;7.006;2023-06-10T09:08:46;5.18;;;4.43;;
75526;SDS011;64107;49.248;7.006;2023-06-10T09:11:12;5.60;;;5.05;;
75526;SDS011;64107;49.248;7.006;2023-06-10T09:13:39;5.03;;;4.47;;
75526;SDS011;64107;49.248;7.006;2023-06-10T09:16:05;4.22;;;3.83;;
75526;SDS011;64107;49.248;7.006;2023-06-10T09:18:31;6.63;;;5.65;;
75526;SDS011;64107;49.248;7.006;2023-06-10T09:20:57;5.30;;;3.95;;
75526;SDS011;64107;49.248;7.006;2023-06-10T09:23:23;3.30;;;3.00;;
75526;SDS011;64107;49.248;7.006;2023-06-10T09:25:55;3.67;;;3.38;;
75526;SDS011;64107;49.248;7.006;2023-06-10T09:28:22;4.80;;;3.80;;
75526;SDS011;64107;49.248;7.006;2023-06-10T09:30:49;6.80;;;3.70;;
75526;SDS011;64107;49.248;7.006;2023-06-10T09:33:15;4.60;;;3.53;;
75526;SDS011;64107;49.248;7.006;2023-06-10T09:35:45;4.30;;;3.90;;
75526;SDS011;64107;49.248;7.006;2023-06-10T09:38:13;4.30;;;3.92;;
75526;SDS011;64107;49.248;7.006;2023-06-10T09:40:50;4.00;;;3.60;;
75526;SDS011;64107;49.248;7.006;2023-06-10T09:43:17;5.70;;;5.13;;
75526;SDS011;64107;49.248;7.006;2023-06-10T09:45:43;5.88;;;5.28;;
75526;SDS011;64107;49.248;7.006;2023-06-10T09:48:09;6.53;;;5.13;;
75526;SDS011;64107;49.248;7.006;2023-06-10T09:50:41;6.80;;;5.03;;
75526;SDS011;64107;49.248;7.006;2023-06-10T09:53:08;5.68;;;4.57;;
75526;SDS011;64107;49.248;7.006;2023-06-10T09:55:38;6.72;;;4.32;;
75526;SDS011;64107;49.248;7.006;2023-06-10T09:58:05;5.05;;;4.40;;
75526;SDS011;64107;49.248;7.006;2023-06-10T10:00:31;3.92;;;3.50;;
75526;SDS011;64107;49.248;7.006;2023-06-10T10:02:58;4.68;;;3.47;;
75526;SDS011;64107;49.248;7.006;2023-06-10T10:05:24;6.03;;;3.60;;
75526;SDS011;64107;49.248;7.006;2023-06-10T10:07:51;5.57;;;4.85;;
75526;SDS011;64107;49.248;7.006;2023-06-10T10:10:19;4.53;;;3.95;;
75526;SDS011;64107;49.248;7.006;2023-06-10T10:12:46;4.28;;;3.88;;
75526;SDS011;64107;49.248;7.006;2023-06-10T10:15:13;3.88;;;3.47;;
75526;SDS011;64107;49.248;7.006;2023-06-10T10:18:04;4.38;;;3.22;;
75526;SDS011;64107;49.248;7.006;2023-06-10T10:20:33;3.90;;;3.53;;
75526;SDS011;64107;49.248;7.006;2023-06-10T10:23:03;4.05;;;3.42;;
75526;SDS011;64107;49.248;7.006;2023-06-10T10:25:32;5.32;;;3.45;;
75526;SDS011;64107;49.248;7.006;2023-06-10T10:30:58;4.03;;;2.90;;
75526;SDS011;64107;49.248;7.006;2023-06-10T10:33:27;3.97;;;3.55;;
75526;SDS011;64107;49.248;7.006;2023-06-10T10:36:11;3.95;;;3.65;;
75526;SDS011;64107;49.248;7.006;2023-06-10T10:38:37;4.72;;;3.90;;
75526;SDS011;64107;49.248;7.006;2023-06-10T10:41:04;7.88;;;3.83;;
75526;SDS011;64107;49.248;7.006;2023-06-10T10:43:30;4.85;;;3.78;;
75526;SDS011;64107;49.248;7.006;2023-06-10T10:46:00;3.83;;;3.40;;
75526;SDS011;64107;49.248;7.006;2023-06-10T10:48:35;4.30;;;3.70;;
75526;SDS011;64107;49.248;7.006;2023-06-10T10:51:03;4.55;;;3.25;;
75526;SDS011;64107;49.248;7.006;2023-06-10T10:53:29;4.32;;;3.67;;
75526;SDS011;64107;49.248;7.006;2023-06-10T10:55:59;7.18;;;3.88;;
75526;SDS011;64107;49.248;7.006;2023-06-10T10:58:32;3.72;;;3.42;;
75526;SDS011;64107;49.248;7.006;2023-06-10T11:00:59;4.30;;;3.55;;
75526;SDS011;64107;49.248;7.006;2023-06-10T11:03:28;3.42;;;3.13;;
75526;SDS011;64107;49.248;7.006;2023-06-10T11:05:56;4.72;;;3.88;;
75526;SDS011;64107;49.248;7.006;2023-06-10T11:10:57;4.05;;;3.65;;
75526;SDS011;64107;49.248;7.006;2023-06-10T11:13:23;3.60;;;3.30;;
75526;SDS011;64107;49.248;7.006;2023-06-10T11:15:51;6.00;;;3.97;;
75526;SDS011;64107;49.248;7.006;2023-06-10T11:20:52;4.13;;;3.83;;
75526;SDS011;64107;49.248;7.006;2023-06-10T11:25:51;4.95;;;4.45;;
75526;SDS011;64107;49.248;7.006;2023-06-10T11:28:38;4.00;;;3.60;;
75526;SDS011;64107;49.248;7.006;2023-06-10T11:31:04;5.30;;;3.67;;
75526;SDS011;64107;49.248;7.006;2023-06-10T11:33:30;4.50;;;4.10;;
75526;SDS011;64107;49.248;7.006;2023-06-10T11:35:57;3.88;;;3.53;;
75526;SDS011;64107;49.248;7.006;2023-06-10T11:38:23;5.75;;;3.60;;
75526;SDS011;64107;49.248;7.006;2023-06-10T11:40:50;4.53;;;4.13;;
75526;SDS011;64107;49.248;7.006;2023-06-10T11:43:16;4.00;;;3.45;;
75526;SDS011;64107;49.248;7.006;2023-06-10T11:45:43;4.63;;;3.63;;
75526;SDS011;64107;49.248;7.006;2023-06-10T11:48:09;4.35;;;3.85;;
75526;SDS011;64107;49.248;7.006;2023-06-10T11:50:37;3.70;;;3.40;;
75526;SDS011;64107;49.248;7.006;2023-06-10T11:53:03;3.50;;;3.20;;
75526;SDS011;64107;49.248;7.006;2023-06-10T11:58:15;4.00;;;3.70;;
75526;SDS011;64107;49.248;7.006;2023-06-10T12:00:49;4.38;;;3.97;;
75526;SDS011;64107;49.248;7.006;2023-06-10T12:03:16;4.22;;;3.88;;
75526;SDS011;64107;49.248;7.006;2023-06-10T12:08:27;4.78;;;3.90;;
75526;SDS011;64107;49.248;7.006;2023-06-10T12:10:54;5.28;;;4.28;;
75526;SDS011;64107;49.248;7.006;2023-06-10T12:13:21;5.07;;;3.90;;
75526;SDS011;64107;49.248;7.006;2023-06-10T12:15:49;3.78;;;3.40;;
75526;SDS011;64107;49.248;7.006;2023-06-10T12:18:16;4.60;;;4.20;;
75526;SDS011;64107;49.248;7.006;2023-06-10T12:20:45;3.90;;;3.50;;
75526;SDS011;64107;49.248;7.006;2023-06-10T12:23:13;4.60;;;4.22;;
75526;SDS011;64107;49.248;7.006;2023-06-10T12:25:48;6.60;;;3.50;;
75526;SDS011;64107;49.248;7.006;2023-06-10T12:28:22;5.35;;;3.95;;
75526;SDS011;64107;49.248;7.006;2023-06-10T12:30:49;4.78;;;3.72;;
75526;SDS011;64107;49.248;7.006;2023-06-10T12:33:18;3.85;;;3.55;;
75526;SDS011;64107;49.248;7.006;2023-06-10T12:35:48;3.80;;;3.47;;
75526;SDS011;64107;49.248;7.006;2023-06-10T12:38:23;3.63;;;3.30;;
75526;SDS011;64107;49.248;7.006;2023-06-10T12:40:51;4.35;;;3.55;;
75526;SDS011;64107;49.248;7.006;2023-06-10T12:43:20;3.40;;;3.10;;
75526;SDS011;64107;49.248;7.006;2023-06-10T12:45:47;6.60;;;3.88;;
75526;SDS011;64107;49.248;7.006;2023-06-10T12:48:18;5.38;;;3.65;;
75526;SDS011;64107;49.248;7.006;2023-06-10T12:50:46;5.95;;;4.05;;
75526;SDS011;64107;49.248;7.006;2023-06-10T12:53:18;7.03;;;4.18;;
75526;SDS011;64107;49.248;7.006;2023-06-10T12:55:44;4.30;;;3.72;;
75526;SDS011;64107;49.248;7.006;2023-06-10T12:58:11;3.92;;;3.60;;
75526;SDS011;64107;49.248;7.006;2023-06-10T13:00:37;3.55;;;3.25;;
75526;SDS011;64107;49.248;7.006;2023-06-10T13:03:04;3.60;;;3.20;;
75526;SDS011;64107;49.248;7.006;2023-06-10T13:05:33;3.58;;;3.28;;
75526;SDS011;64107;49.248;7.006;2023-06-10T13:08:00;4.25;;;3.63;;
75526;SDS011;64107;49.248;7.006;2023-06-10T13:10:26;4.40;;;4.00;;
75526;SDS011;64107;49.248;7.006;2023-06-10T13:12:52;3.83;;;3.45;;
75526;SDS011;64107;49.248;7.006;2023-06-10T13:15:22;3.83;;;3.50;;
75526;SDS011;64107;49.248;7.006;2023-06-10T13:17:48;4.60;;;3.78;;
75526;SDS011;64107;49.248;7.006;2023-06-10T13:20:15;4.68;;;3.65;;
75526;SDS011;64107;49.248;7.006;2023-06-10T13:22:42;5.57;;;3.60;;
75526;SDS011;64107;49.248;7.006;2023-06-10T13:25:08;4.40;;;3.78;;
75526;SDS011;64107;49.248;7.006;2023-06-10T13:27:37;4.63;;;3.80;;
75526;SDS011;64107;49.248;7.006;2023-06-10T13:30:04;5.70;;;4.70;;
75526;SDS011;64107;49.248;7.006;2023-06-10T13:32:31;4.82;;;4.00;;
75526;SDS011;64107;49.248;7.006;2023-06-10T13:34:57;4.30;;;3.90;;
75526;SDS011;64107;49.248;7.006;2023-06-10T13:37:24;3.92;;;3.53;;
75526;SDS011;64107;49.248;7.006;2023-06-10T13:39:50;5.40;;;4.90;;
75526;SDS011;64107;49.248;7.006;2023-06-10T13:42:16;4.90;;;4.47;;
75526;SDS011;64107;49.248;7.006;2023-06-10T13:44:43;5.03;;;4.28;;
75526;SDS011;64107;49.248;7.006;2023-06-10T13:47:09;4.47;;;4.07;;
75526;SDS011;64107;49.248;7.006;2023-06-10T13:49:35;4.68;;;4.22;;
75526;SDS011;64107;49.248;7.006;2023-06-10T13:52:02;4.68;;;3.88;;
75526;SDS011;64107;49.248;7.006;2023-06-10T13:54:28;4.78;;;4.38;;
75526;SDS011;64107;49.248;7.006;2023-06-10T13:56:54;4.35;;;3.92;;
75526;SDS011;64107;49.248;7.006;2023-06-10T13:59:20;4.07;;;3.78;;
75526;SDS011;64107;49.248;7.006;2023-06-10T14:01:47;5.85;;;4.65;;
75526;SDS011;64107;49.248;7.006;2023-06-10T14:04:13;4.55;;;4.15;;
75526;SDS011;64107;49.248;7.006;2023-06-10T14:06:39;5.78;;;4.07;;
75526;SDS011;64107;49.248;7.006;2023-06-10T14:09:06;5.10;;;4.60;;
75526;SDS011;64107;49.248;7.006;2023-06-10T14:11:32;5.18;;;3.90;;
75526;SDS011;64107;49.248;7.006;2023-06-10T14:13:58;5.93;;;4.40;;
75526;SDS011;64107;49.248;7.006;2023-06-10T14:16:25;4.65;;;4.15;;
75526;SDS011;64107;49.248;7.006;2023-06-10T14:18:51;6.07;;;4.72;;
75526;SDS011;64107;49.248;7.006;2023-06-10T14:21:18;4.75;;;4.35;;
75526;SDS011;64107;49.248;7.006;2023-06-10T14:23:44;5.43;;;4.65;;
75526;SDS011;64107;49.248;7.006;2023-06-10T14:26:10;4.57;;;4.10;;
75526;SDS011;64107;49.248;7.006;2023-06-10T14:28:36;4.25;;;3.95;;
75526;SDS011;64107;49.248;7.006;2023-06-10T14:31:03;5.10;;;4.70;;
75526;SDS011;64107;49.248;7.006;2023-06-10T14:33:29;4.75;;;4.30;;
75526;SDS011;64107;49.248;7.006;2023-06-10T14:35:56;4.88;;;4.25;;
75526;SDS011;64107;49.248;7.006;2023-06-10T14:38:22;5.40;;;4.90;;
75526;SDS011;64107;49.248;7.006;2023-06-10T14:40:49;5.60;;;4.25;;
75526;SDS011;64107;49.248;7.006;2023-06-10T14:43:15;5.35;;;4.70;;
75526;SDS011;64107;49.248;7.006;2023-06-10T14:45:41;5.95;;;5.45;;
75526;SDS011;64107;49.248;7.006;2023-06-10T14:48:07;5.15;;;4.65;;
75526;SDS011;64107;49.248;7.006;2023-06-10T14:50:37;5.47;;;4.97;;
75526;SDS011;64107;49.248;7.006;2023-06-10T14:53:03;6.18;;;5.35;;
75526;SDS011;64107;49.248;7.006;2023-06-10T14:55:29;5.93;;;5.22;;
75526;SDS011;64107;49.248;7.006;2023-06-10T14:57:55;5.70;;;5.20;;
75526;SDS011;64107;49.248;7.006;2023-06-10T15:00:22;4.55;;;4.15;;
75526;SDS011;64107;49.248;7.006;2023-06-10T15:02:50;5.53;;;5.03;;
75526;SDS011;64107;49.248;7.006;2023-06-10T15:05:17;5.13;;;4.63;;
75526;SDS011;64107;49.248;7.006;2023-06-10T15:07:46;5.25;;;4.70;;